Time;durP1;ratioP1;P1;durP2;ratioP2;P2;SDS_P1;SDS_P2;PMS_P1;PMS_P2;Temp;Humidity;BMP_temperature;BMP_pressure;BME280_temperature;BME280_humidity;BME280_pressure;Samples;Min_cycle;Max_cycle;Signal;HPM_P1;HPM_P2
2021/12/02 00:01:13;;;;;;;0.20;0.20;;;;;;;;;;5122167;27;20213;-46
2021/12/02 00:03:39;;;;;;;0.30;0.20;;;;;;;;;;5126574;27;20203;-46
2021/12/02 00:06:13;;;;;;;0.25;0.25;;;;;;;;;;5095477;28;20190;-46
2021/12/02 00:08:39;;;;;;;0.20;0.20;;;;;;;;;;5119288;27;20176;-46
2021/12/02 00:11:06;;;;;;;0.63;0.32;;;;;;;;;;5125238;27;20211;-46
2021/12/02 00:13:43;;;;;;;0.30;0.30;;;;;;;;;;5123482;27;20244;-46
2021/12/02 00:21:03;;;;;;;0.20;0.20;;;;;;;;;;5114498;27;20306;-46
2021/12/02 00:21:28;;;;;;;0.95;0.30;;;;;;;;;;5120798;27;20180;-46
2021/12/02 00:24:02;;;;;;;0.15;0.15;;;;;;;;;;5120669;27;20173;-46
2021/12/02 00:26:29;;;;;;;0.20;0.20;;;;;;;;;;5103130;27;20481;-46
2021/12/02 00:28:56;;;;;;;0.20;0.20;;;;;;;;;;5126899;27;20176;-46
2021/12/02 00:31:23;;;;;;;0.28;0.28;;;;;;;;;;5104853;27;20702;-46
2021/12/02 00:33:54;;;;;;;0.20;0.20;;;;;;;;;;5122016;27;20288;-46
2021/12/02 00:36:22;;;;;;;0.22;0.10;;;;;;;;;;5120485;27;20241;-46
2021/12/02 00:38:48;;;;;;;0.30;0.20;;;;;;;;;;5109113;27;20556;-46
2021/12/02 00:41:16;;;;;;;0.30;0.20;;;;;;;;;;5121917;27;20183;-46
2021/12/02 00:43:42;;;;;;;0.20;0.20;;;;;;;;;;5120002;27;20229;-46
2021/12/02 00:46:10;;;;;;;0.10;0.10;;;;;;;;;;5103902;27;20501;-46
2021/12/02 00:48:37;;;;;;;0.28;0.20;;;;;;;;;;5118852;27;20771;-46
2021/12/02 00:51:04;;;;;;;0.35;0.20;;;;;;;;;;5127400;27;20180;-46
2021/12/02 00:53:31;;;;;;;0.28;0.20;;;;;;;;;;5122921;27;20606;-46
2021/12/02 00:56:02;;;;;;;0.10;0.10;;;;;;;;;;5104370;28;20180;-46
2021/12/02 00:58:28;;;;;;;0.25;0.20;;;;;;;;;;5120707;28;20185;-46
2021/12/02 01:00:54;;;;;;;0.40;0.20;;;;;;;;;;5126768;28;20193;-46
2021/12/02 01:03:21;;;;;;;0.45;0.10;;;;;;;;;;5110574;28;20208;-46
2021/12/02 01:05:47;;;;;;;0.10;0.10;;;;;;;;;;5114522;28;20192;-46
2021/12/02 01:08:13;;;;;;;0.40;0.20;;;;;;;;;;5115236;28;20584;-46
2021/12/02 01:10:41;;;;;;;0.55;0.30;;;;;;;;;;5124627;28;20221;-46
2021/12/02 01:13:07;;;;;;;0.20;0.20;;;;;;;;;;5126369;28;20536;-46
2021/12/02 01:15:33;;;;;;;0.20;0.20;;;;;;;;;;5113231;28;20177;-46
2021/12/02 01:17:59;;;;;;;0.20;0.10;;;;;;;;;;5121391;28;20185;-46
2021/12/02 01:20:25;;;;;;;0.85;0.20;;;;;;;;;;5122262;28;20183;-46
2021/12/02 01:22:51;;;;;;;0.13;0.13;;;;;;;;;;5124904;28;20176;-46
2021/12/02 01:25:19;;;;;;;0.20;0.20;;;;;;;;;;5122199;28;20563;-46
2021/12/02 01:27:47;;;;;;;0.20;0.20;;;;;;;;;;5121085;28;20180;-45
2021/12/02 01:30:14;;;;;;;0.47;0.20;;;;;;;;;;5120561;28;20187;-45
2021/12/02 01:32:40;;;;;;;0.20;0.20;;;;;;;;;;5123831;28;20185;-46
2021/12/02 01:35:07;;;;;;;0.10;0.10;;;;;;;;;;5109802;28;20202;-46
2021/12/02 01:37:33;;;;;;;0.68;0.30;;;;;;;;;;5121376;28;20786;-46
2021/12/02 01:39:59;;;;;;;0.35;0.30;;;;;;;;;;5130235;28;20475;-46
2021/12/02 01:42:27;;;;;;;0.32;0.20;;;;;;;;;;5105125;28;20257;-46
2021/12/02 01:44:57;;;;;;;0.63;0.20;;;;;;;;;;5123683;28;20253;-46
2021/12/02 01:47:25;;;;;;;0.40;0.20;;;;;;;;;;5125724;28;20198;-46
2021/12/02 01:49:54;;;;;;;0.20;0.20;;;;;;;;;;5112101;28;20170;-46
2021/12/02 01:52:21;;;;;;;0.28;0.20;;;;;;;;;;5120307;28;20335;-46
2021/12/02 01:54:47;;;;;;;0.30;0.30;;;;;;;;;;5125371;28;20207;-46
2021/12/02 01:57:22;;;;;;;0.30;0.30;;;;;;;;;;5125545;27;20185;-46
2021/12/02 01:59:52;;;;;;;0.20;0.20;;;;;;;;;;5110627;27;20652;-45
2021/12/02 02:02:20;;;;;;;0.52;0.13;;;;;;;;;;5120227;27;20204;-45
2021/12/02 02:04:46;;;;;;;1.17;0.35;;;;;;;;;;5129960;27;20208;-45
2021/12/02 02:07:13;;;;;;;1.65;0.15;;;;;;;;;;5123180;27;20204;-45
2021/12/02 02:09:39;;;;;;;1.05;0.25;;;;;;;;;;5131321;27;20204;-45
2021/12/02 02:12:07;;;;;;;0.20;0.20;;;;;;;;;;5117799;27;20226;-45
2021/12/02 02:14:33;;;;;;;0.40;0.20;;;;;;;;;;5115755;27;20236;-47
2021/12/02 02:17:03;;;;;;;0.20;0.20;;;;;;;;;;5123620;27;20204;-46
2021/12/02 02:19:32;;;;;;;1.33;0.30;;;;;;;;;;5130847;27;20556;-46
2021/12/02 02:21:59;;;;;;;0.25;0.20;;;;;;;;;;5110027;28;20176;-46
2021/12/02 02:24:25;;;;;;;0.30;0.20;;;;;;;;;;5122581;27;20222;-46
2021/12/02 02:26:51;;;;;;;0.25;0.25;;;;;;;;;;5118215;27;20181;-46
2021/12/02 02:29:18;;;;;;;0.30;0.30;;;;;;;;;;5125630;27;20173;-46
2021/12/02 02:31:44;;;;;;;0.75;0.32;;;;;;;;;;5113264;27;20229;-46
2021/12/02 02:34:11;;;;;;;0.20;0.20;;;;;;;;;;5121025;27;20193;-46
2021/12/02 02:36:40;;;;;;;0.60;0.30;;;;;;;;;;5114396;27;20174;-46
2021/12/02 02:39:06;;;;;;;0.20;0.20;;;;;;;;;;5128759;27;20214;-46
2021/12/02 02:41:39;;;;;;;0.50;0.20;;;;;;;;;;5123076;27;20184;-46
2021/12/02 02:44:05;;;;;;;0.32;0.30;;;;;;;;;;5127306;27;20183;-46
2021/12/02 02:46:34;;;;;;;0.20;0.20;;;;;;;;;;5107712;27;20241;-46
2021/12/02 02:49:01;;;;;;;0.20;0.20;;;;;;;;;;5112295;27;20181;-46
2021/12/02 02:51:29;;;;;;;0.40;0.25;;;;;;;;;;5104020;27;20181;-46
2021/12/02 02:53:57;;;;;;;0.73;0.40;;;;;;;;;;5122802;27;20273;-46
2021/12/02 02:56:25;;;;;;;0.85;0.40;;;;;;;;;;5121306;27;20177;-46
2021/12/02 02:59:06;;;;;;;0.52;0.30;;;;;;;;;;5127894;27;20160;-46
2021/12/02 03:01:39;;;;;;;0.43;0.25;;;;;;;;;;5112751;27;20562;-46
2021/12/02 03:08:11;;;;;;;0.88;0.30;;;;;;;;;;5073811;27;20186;-46
2021/12/02 03:10:10;;;;;;;0.28;0.10;;;;;;;;;;5087128;28;20185;-46
2021/12/02 03:12:52;;;;;;;0.88;0.32;;;;;;;;;;5125997;27;20184;-45
2021/12/02 03:17:45;;;;;;;0.47;0.22;;;;;;;;;;5123507;27;20180;-45
2021/12/02 03:20:11;;;;;;;0.28;0.28;;;;;;;;;;5131849;27;20173;-45
2021/12/02 03:22:37;;;;;;;0.40;0.40;;;;;;;;;;5126069;27;20251;-45
2021/12/02 03:25:05;;;;;;;1.23;0.30;;;;;;;;;;5123040;27;20563;-45
2021/12/02 03:27:31;;;;;;;0.20;0.17;;;;;;;;;;5112278;27;20196;-45
2021/12/02 03:29:57;;;;;;;0.32;0.30;;;;;;;;;;5123991;27;20261;-45
2021/12/02 03:32:23;;;;;;;0.35;0.30;;;;;;;;;;5125327;27;20489;-46
2021/12/02 03:34:50;;;;;;;0.30;0.20;;;;;;;;;;5120996;27;20254;-46
2021/12/02 03:37:17;;;;;;;0.52;0.25;;;;;;;;;;5122703;27;20472;-46
2021/12/02 03:39:43;;;;;;;0.52;0.20;;;;;;;;;;5105949;28;20224;-46
2021/12/02 03:42:10;;;;;;;0.57;0.50;;;;;;;;;;5116547;27;20211;-46
2021/12/02 03:44:36;;;;;;;0.47;0.28;;;;;;;;;;5110618;27;20532;-46
2021/12/02 03:47:03;;;;;;;0.57;0.20;;;;;;;;;;5122246;27;20596;-46
2021/12/02 03:49:29;;;;;;;0.28;0.20;;;;;;;;;;5123171;27;20196;-46
2021/12/02 03:51:55;;;;;;;0.43;0.20;;;;;;;;;;5122916;27;20181;-46
2021/12/02 03:54:21;;;;;;;0.32;0.20;;;;;;;;;;5119752;27;20523;-46
2021/12/02 03:56:47;;;;;;;0.30;0.30;;;;;;;;;;5118274;27;20206;-46
2021/12/02 03:59:13;;;;;;;0.30;0.30;;;;;;;;;;5125667;27;20191;-46
2021/12/02 04:01:39;;;;;;;0.65;0.40;;;;;;;;;;5114603;27;20212;-46
2021/12/02 04:04:06;;;;;;;0.60;0.30;;;;;;;;;;5115413;27;20190;-46
2021/12/02 04:06:32;;;;;;;0.57;0.30;;;;;;;;;;5114577;27;20624;-46
2021/12/02 04:11:35;;;;;;;1.23;0.40;;;;;;;;;;5119161;27;20451;-46
2021/12/02 04:16:30;;;;;;;0.43;0.30;;;;;;;;;;5117245;27;20186;-46
2021/12/02 04:18:56;;;;;;;0.60;0.40;;;;;;;;;;5121883;27;20629;-46
2021/12/02 04:21:22;;;;;;;0.35;0.20;;;;;;;;;;5105863;27;20173;-46
2021/12/02 04:23:48;;;;;;;0.30;0.20;;;;;;;;;;5121080;27;20253;-46
2021/12/02 04:26:14;;;;;;;0.32;0.30;;;;;;;;;;5109300;28;20204;-46
2021/12/02 04:28:40;;;;;;;0.47;0.30;;;;;;;;;;5128430;27;20271;-46
2021/12/02 04:31:06;;;;;;;0.40;0.40;;;;;;;;;;5120509;27;20183;-46
2021/12/02 04:33:32;;;;;;;0.30;0.30;;;;;;;;;;5122382;27;20224;-46
2021/12/02 04:36:00;;;;;;;0.40;0.40;;;;;;;;;;5107968;27;20595;-46
2021/12/02 04:38:26;;;;;;;0.68;0.30;;;;;;;;;;5121030;27;20979;-46
2021/12/02 04:40:52;;;;;;;0.43;0.30;;;;;;;;;;5112223;28;20192;-46
2021/12/02 04:43:18;;;;;;;0.98;0.40;;;;;;;;;;5123679;27;20556;-46
2021/12/02 04:45:45;;;;;;;0.80;0.30;;;;;;;;;;5107348;28;20172;-46
2021/12/02 04:48:11;;;;;;;0.75;0.47;;;;;;;;;;5119545;27;20255;-46
2021/12/02 04:50:37;;;;;;;0.45;0.30;;;;;;;;;;5107285;27;20198;-46
2021/12/02 04:53:03;;;;;;;0.65;0.30;;;;;;;;;;5124641;27;20596;-46
2021/12/02 04:55:29;;;;;;;0.25;0.25;;;;;;;;;;5111157;28;20756;-46
2021/12/02 04:57:55;;;;;;;0.70;0.40;;;;;;;;;;5120585;28;20217;-46
2021/12/02 05:00:21;;;;;;;0.85;0.40;;;;;;;;;;5109662;28;20180;-46
2021/12/02 05:02:47;;;;;;;0.68;0.30;;;;;;;;;;5115742;28;20280;-46
2021/12/02 05:05:14;;;;;;;0.75;0.43;;;;;;;;;;5120424;28;20299;-46
2021/12/02 05:07:40;;;;;;;0.95;0.50;;;;;;;;;;5117406;28;20255;-46
2021/12/02 05:10:06;;;;;;;1.00;0.40;;;;;;;;;;5129740;28;20192;-46
2021/12/02 05:12:32;;;;;;;0.73;0.50;;;;;;;;;;5116564;28;20189;-46
2021/12/02 05:14:58;;;;;;;0.63;0.25;;;;;;;;;;5118008;28;20216;-46
2021/12/02 05:17:24;;;;;;;0.45;0.43;;;;;;;;;;5119419;28;20188;-46
2021/12/02 05:19:50;;;;;;;0.57;0.32;;;;;;;;;;5121760;28;20201;-46
2021/12/02 05:22:16;;;;;;;0.47;0.40;;;;;;;;;;5121796;28;20263;-46
2021/12/02 05:24:42;;;;;;;2.70;1.00;;;;;;;;;;5121249;28;20170;-46
2021/12/02 05:27:08;;;;;;;1.05;0.50;;;;;;;;;;5121555;28;20522;-46
2021/12/02 05:29:34;;;;;;;2.22;0.82;;;;;;;;;;5120547;28;20176;-46
2021/12/02 05:32:00;;;;;;;1.73;0.70;;;;;;;;;;5121970;27;20216;-46
2021/12/02 05:34:27;;;;;;;2.30;0.77;;;;;;;;;;5124586;27;20228;-46
2021/12/02 05:36:53;;;;;;;2.58;0.85;;;;;;;;;;5108377;27;20174;-46
2021/12/02 05:39:19;;;;;;;1.10;0.60;;;;;;;;;;5114456;27;20175;-46
2021/12/02 05:41:45;;;;;;;2.53;0.95;;;;;;;;;;5128377;27;20256;-46
2021/12/02 05:44:11;;;;;;;3.20;0.90;;;;;;;;;;5115611;27;20197;-46
2021/12/02 05:46:38;;;;;;;1.92;0.90;;;;;;;;;;5094136;27;20180;-45
2021/12/02 05:49:04;;;;;;;1.58;0.70;;;;;;;;;;5126965;27;20176;-46
2021/12/02 05:51:30;;;;;;;1.65;0.88;;;;;;;;;;5118713;27;20193;-46
2021/12/02 05:53:56;;;;;;;2.30;1.13;;;;;;;;;;5129140;27;20199;-46
2021/12/02 05:56:22;;;;;;;3.33;1.00;;;;;;;;;;5113482;27;20174;-46
2021/12/02 05:58:48;;;;;;;2.70;1.05;;;;;;;;;;5131734;27;20176;-46
2021/12/02 06:01:14;;;;;;;4.05;0.98;;;;;;;;;;5122341;27;20181;-46
2021/12/02 06:03:40;;;;;;;5.65;1.40;;;;;;;;;;5121957;27;20644;-46
2021/12/02 06:06:07;;;;;;;1.48;0.85;;;;;;;;;;5106388;27;20189;-46
2021/12/02 06:08:33;;;;;;;2.47;1.13;;;;;;;;;;5128220;27;20263;-45
2021/12/02 06:10:59;;;;;;;4.18;1.27;;;;;;;;;;5108171;28;20177;-45
2021/12/02 06:13:26;;;;;;;2.35;1.13;;;;;;;;;;5126257;27;20200;-45
2021/12/02 06:15:52;;;;;;;2.10;1.00;;;;;;;;;;5122707;27;20268;-46
2021/12/02 06:18:18;;;;;;;5.75;1.10;;;;;;;;;;5124547;27;20450;-46
2021/12/02 06:20:51;;;;;;;2.67;1.45;;;;;;;;;;5114574;27;20517;-46
2021/12/02 06:23:17;;;;;;;2.65;1.20;;;;;;;;;;5120112;27;20181;-46
2021/12/02 06:25:47;;;;;;;3.78;1.35;;;;;;;;;;5114788;27;20196;-46
2021/12/02 06:28:13;;;;;;;1.63;1.23;;;;;;;;;;5126174;27;20177;-46
2021/12/02 06:30:39;;;;;;;1.73;0.85;;;;;;;;;;5106181;27;20191;-46
2021/12/02 06:33:05;;;;;;;3.40;1.35;;;;;;;;;;5114905;27;20181;-46
2021/12/02 06:35:31;;;;;;;2.38;1.02;;;;;;;;;;5122509;27;20188;-45
2021/12/02 06:37:57;;;;;;;2.88;1.40;;;;;;;;;;5111304;27;20182;-45
2021/12/02 06:40:23;;;;;;;2.75;1.23;;;;;;;;;;5113260;27;20185;-45
2021/12/02 06:42:49;;;;;;;3.55;1.50;;;;;;;;;;5122019;27;20184;-46
2021/12/02 06:45:16;;;;;;;2.40;1.20;;;;;;;;;;5121148;27;20511;-46
2021/12/02 06:47:43;;;;;;;2.92;1.30;;;;;;;;;;5109236;27;20253;-46
2021/12/02 06:50:13;;;;;;;2.03;1.30;;;;;;;;;;5115675;27;20259;-46
2021/12/02 06:52:39;;;;;;;2.63;1.10;;;;;;;;;;5114623;27;20180;-46
2021/12/02 06:55:05;;;;;;;2.08;1.10;;;;;;;;;;5109475;27;20221;-46
2021/12/02 06:57:31;;;;;;;2.58;1.15;;;;;;;;;;5127123;27;20184;-46
2021/12/02 07:00:02;;;;;;;2.47;1.30;;;;;;;;;;5120721;27;20260;-45
2021/12/02 07:02:29;;;;;;;3.88;1.33;;;;;;;;;;5123491;27;20464;-45
2021/12/02 07:04:57;;;;;;;2.35;1.40;;;;;;;;;;5121367;27;20271;-45
2021/12/02 07:07:23;;;;;;;3.08;1.40;;;;;;;;;;5115114;27;20172;-45
2021/12/02 07:09:49;;;;;;;3.13;1.40;;;;;;;;;;5124618;27;20214;-45
2021/12/02 07:12:19;;;;;;;2.78;1.42;;;;;;;;;;5119400;27;20263;-45
2021/12/02 07:14:47;;;;;;;3.58;1.50;;;;;;;;;;5122115;27;20283;-45
2021/12/02 07:17:17;;;;;;;3.55;1.40;;;;;;;;;;5122909;27;20173;-45
2021/12/02 07:19:43;;;;;;;2.85;1.27;;;;;;;;;;5117891;27;20275;-45
2021/12/02 07:22:09;;;;;;;3.42;1.55;;;;;;;;;;5114182;27;20260;-45
2021/12/02 07:24:35;;;;;;;3.35;1.20;;;;;;;;;;5122054;27;20180;-46
2021/12/02 07:27:01;;;;;;;3.85;1.60;;;;;;;;;;5122762;27;20189;-45
2021/12/02 07:29:27;;;;;;;2.80;1.35;;;;;;;;;;5114990;27;20231;-45
2021/12/02 07:31:54;;;;;;;4.15;1.70;;;;;;;;;;5106892;27;20182;-45
2021/12/02 07:34:23;;;;;;;3.10;1.30;;;;;;;;;;5111656;27;20201;-45
2021/12/02 07:36:51;;;;;;;1.65;1.13;;;;;;;;;;5110230;27;20180;-45
2021/12/02 07:39:18;;;;;;;3.10;1.17;;;;;;;;;;5117023;27;20176;-46
2021/12/02 07:41:44;;;;;;;3.35;1.40;;;;;;;;;;5113076;27;20235;-46
2021/12/02 07:44:12;;;;;;;2.08;1.08;;;;;;;;;;5115610;27;20185;-46
2021/12/02 07:46:38;;;;;;;2.15;1.25;;;;;;;;;;5110193;27;20184;-46
2021/12/02 07:49:04;;;;;;;2.58;1.20;;;;;;;;;;5126971;27;20182;-46
2021/12/02 07:51:31;;;;;;;2.20;1.20;;;;;;;;;;5114885;27;20658;-46
2021/12/02 07:53:58;;;;;;;2.33;1.40;;;;;;;;;;5125196;27;20200;-46
2021/12/02 07:56:24;;;;;;;4.00;1.25;;;;;;;;;;5119237;27;20173;-46
2021/12/02 07:58:50;;;;;;;3.95;1.65;;;;;;;;;;5124131;27;20231;-46
2021/12/02 08:01:19;;;;;;;3.25;1.15;;;;;;;;;;5118160;27;20561;-46
2021/12/02 08:03:45;;;;;;;1.88;1.10;;;;;;;;;;5104962;27;20217;-46
2021/12/02 08:06:12;;;;;;;3.85;1.33;;;;;;;;;;5115826;27;20467;-46
2021/12/02 08:08:39;;;;;;;3.33;1.30;;;;;;;;;;5123571;27;20572;-45
2021/12/02 08:11:08;;;;;;;2.17;1.10;;;;;;;;;;5113338;27;20205;-45
2021/12/02 08:13:34;;;;;;;2.38;1.08;;;;;;;;;;5115906;27;20263;-45
2021/12/02 08:16:02;;;;;;;5.15;1.42;;;;;;;;;;5108286;27;20216;-45
2021/12/02 08:18:28;;;;;;;3.05;1.75;;;;;;;;;;5125169;27;20161;-45
2021/12/02 08:20:55;;;;;;;2.53;1.30;;;;;;;;;;5110292;27;20560;-45
2021/12/02 08:23:21;;;;;;;3.42;1.17;;;;;;;;;;5110184;27;20223;-45
2021/12/02 08:25:47;;;;;;;2.10;1.00;;;;;;;;;;5096556;28;20177;-45
2021/12/02 08:28:13;;;;;;;2.70;1.10;;;;;;;;;;5111964;27;20192;-46
2021/12/02 08:30:40;;;;;;;2.05;1.30;;;;;;;;;;5107186;27;20247;-46
2021/12/02 08:33:07;;;;;;;2.10;1.23;;;;;;;;;;5115873;27;20178;-46
2021/12/02 08:35:34;;;;;;;2.13;1.13;;;;;;;;;;5097563;27;20162;-46
2021/12/02 08:38:05;;;;;;;1.85;1.33;;;;;;;;;;5117272;27;20736;-46
2021/12/02 08:40:36;;;;;;;2.05;1.02;;;;;;;;;;5121707;27;20209;-46
2021/12/02 08:43:04;;;;;;;1.15;0.90;;;;;;;;;;5115767;27;20165;-46
2021/12/02 08:45:30;;;;;;;1.70;1.05;;;;;;;;;;5105974;27;20229;-46
2021/12/02 08:47:56;;;;;;;1.90;1.20;;;;;;;;;;5110349;27;20551;-46
2021/12/02 08:50:23;;;;;;;1.92;1.30;;;;;;;;;;5129215;27;20169;-46
2021/12/02 08:52:50;;;;;;;1.80;1.10;;;;;;;;;;5097482;28;20177;-46
2021/12/02 08:55:17;;;;;;;2.00;1.17;;;;;;;;;;5106960;28;20330;-46
2021/12/02 08:57:44;;;;;;;2.60;1.10;;;;;;;;;;5105325;28;20192;-46
2021/12/02 09:00:12;;;;;;;1.60;0.90;;;;;;;;;;5106006;28;20184;-46
2021/12/02 09:02:37;;;;;;;1.05;0.93;;;;;;;;;;5106494;28;20173;-46
2021/12/02 09:05:04;;;;;;;1.63;0.93;;;;;;;;;;5102447;28;20314;-46
2021/12/02 09:07:30;;;;;;;1.25;0.73;;;;;;;;;;5120520;27;20184;-45
2021/12/02 09:09:56;;;;;;;2.33;1.20;;;;;;;;;;5108809;27;20212;-45
2021/12/02 09:12:23;;;;;;;2.05;1.08;;;;;;;;;;5096539;28;20166;-45
2021/12/02 09:14:49;;;;;;;1.40;0.93;;;;;;;;;;5097539;28;20212;-45
2021/12/02 09:17:15;;;;;;;1.92;1.00;;;;;;;;;;5097978;28;20174;-45
2021/12/02 09:19:42;;;;;;;1.33;0.77;;;;;;;;;;5098922;28;20188;-45
2021/12/02 09:22:08;;;;;;;1.10;0.90;;;;;;;;;;5098524;28;20476;-45
2021/12/02 09:24:34;;;;;;;2.50;1.17;;;;;;;;;;5104593;27;20567;-45
2021/12/02 09:27:00;;;;;;;1.45;1.00;;;;;;;;;;5097782;28;20181;-45
2021/12/02 09:29:26;;;;;;;1.92;1.02;;;;;;;;;;5097591;28;20174;-45
2021/12/02 09:31:53;;;;;;;1.50;1.00;;;;;;;;;;5098945;28;20622;-45
2021/12/02 09:34:20;;;;;;;2.15;1.00;;;;;;;;;;5098394;28;20236;-45
2021/12/02 09:36:46;;;;;;;1.30;0.93;;;;;;;;;;5097564;28;20174;-46
2021/12/02 09:39:13;;;;;;;1.70;1.13;;;;;;;;;;5106671;28;20177;-46
2021/12/02 09:41:40;;;;;;;1.27;0.75;;;;;;;;;;5118007;28;20507;-46
2021/12/02 09:44:06;;;;;;;1.85;1.10;;;;;;;;;;5117577;28;20277;-46
2021/12/02 09:46:33;;;;;;;1.75;0.88;;;;;;;;;;5099652;28;20475;-46
2021/12/02 09:49:01;;;;;;;1.30;0.90;;;;;;;;;;5117890;28;20173;-46
2021/12/02 09:51:33;;;;;;;1.05;0.82;;;;;;;;;;5104913;28;20448;-46
2021/12/02 09:54:08;;;;;;;1.20;0.73;;;;;;;;;;5097024;28;20626;-46
2021/12/02 09:56:36;;;;;;;1.60;0.90;;;;;;;;;;5104938;27;20168;-46
2021/12/02 09:59:07;;;;;;;1.80;1.10;;;;;;;;;;5119992;27;20256;-46
2021/12/02 10:01:57;;;;;;;2.63;1.42;;;;;;;;;;5109644;27;20446;-46
2021/12/02 10:04:23;;;;;;;1.77;0.90;;;;;;;;;;5117336;27;20555;-46
2021/12/02 10:06:50;;;;;;;1.48;1.13;;;;;;;;;;5116348;27;20177;-46
2021/12/02 10:09:24;;;;;;;2.75;1.08;;;;;;;;;;5124458;27;20276;-46
2021/12/02 10:11:53;;;;;;;2.95;1.20;;;;;;;;;;5108273;28;20485;-46
2021/12/02 10:14:38;;;;;;;1.25;0.80;;;;;;;;;;5126281;27;20196;-46
2021/12/02 10:17:08;;;;;;;2.08;0.88;;;;;;;;;;5113219;27;20177;-46
2021/12/02 10:19:34;;;;;;;1.50;1.00;;;;;;;;;;5114222;28;20174;-46
2021/12/02 10:22:08;;;;;;;1.50;1.00;;;;;;;;;;5113831;27;20478;-45
2021/12/02 10:24:41;;;;;;;1.50;0.85;;;;;;;;;;5127722;27;20173;-45
2021/12/02 10:27:07;;;;;;;1.98;0.90;;;;;;;;;;5117386;27;20236;-46
2021/12/02 10:29:36;;;;;;;1.80;0.93;;;;;;;;;;5118102;27;20551;-46
2021/12/02 10:32:19;;;;;;;2.33;1.00;;;;;;;;;;5119908;27;20611;-46
2021/12/02 10:34:49;;;;;;;1.17;0.90;;;;;;;;;;5122913;27;20291;-46
2021/12/02 10:37:18;;;;;;;2.08;1.05;;;;;;;;;;5122914;27;20176;-46
2021/12/02 10:40:05;;;;;;;1.08;0.88;;;;;;;;;;5115113;27;20199;-46
2021/12/02 10:42:32;;;;;;;1.58;1.08;;;;;;;;;;5127234;27;20199;-46
2021/12/02 10:45:02;;;;;;;2.00;0.80;;;;;;;;;;5126747;27;20189;-45
2021/12/02 10:47:28;;;;;;;1.00;0.70;;;;;;;;;;5120758;27;20601;-45
2021/12/02 10:49:56;;;;;;;1.33;0.80;;;;;;;;;;5121261;27;20548;-45
2021/12/02 10:52:30;;;;;;;1.73;1.05;;;;;;;;;;5123748;27;20196;-45
2021/12/02 10:55:04;;;;;;;2.13;1.05;;;;;;;;;;5116090;27;20232;-45
2021/12/02 10:57:31;;;;;;;1.30;1.00;;;;;;;;;;5110879;27;20204;-45
2021/12/02 11:00:01;;;;;;;1.45;1.00;;;;;;;;;;5117635;27;20439;-45
2021/12/02 11:02:29;;;;;;;1.92;1.10;;;;;;;;;;5124156;27;20196;-45
2021/12/02 11:05:05;;;;;;;2.15;1.05;;;;;;;;;;5120466;27;20183;-45
2021/12/02 11:07:33;;;;;;;2.25;0.70;;;;;;;;;;5113070;27;20191;-45
2021/12/02 11:10:00;;;;;;;1.85;1.00;;;;;;;;;;5120242;27;20291;-45
2021/12/02 11:12:34;;;;;;;2.35;0.80;;;;;;;;;;5125058;27;20230;-45
2021/12/02 11:15:01;;;;;;;0.80;0.80;;;;;;;;;;5118863;27;20335;-46
2021/12/02 11:17:32;;;;;;;1.52;1.00;;;;;;;;;;5113149;27;20572;-46
2021/12/02 11:19:59;;;;;;;0.90;0.80;;;;;;;;;;5119791;27;20177;-46
2021/12/02 11:22:28;;;;;;;2.08;1.00;;;;;;;;;;5124230;27;20563;-46
2021/12/02 11:24:55;;;;;;;1.13;0.90;;;;;;;;;;5127539;27;20321;-46
2021/12/02 11:27:23;;;;;;;2.00;0.98;;;;;;;;;;5107199;27;20228;-46
2021/12/02 11:29:57;;;;;;;1.27;1.00;;;;;;;;;;5113203;27;20182;-46
2021/12/02 11:32:23;;;;;;;1.40;1.10;;;;;;;;;;5125213;27;20192;-46
2021/12/02 11:34:58;;;;;;;1.25;0.90;;;;;;;;;;5123999;27;20207;-45
2021/12/02 11:37:25;;;;;;;1.00;0.90;;;;;;;;;;5124060;27;20741;-45
2021/12/02 11:39:52;;;;;;;1.40;1.10;;;;;;;;;;5121038;27;20183;-46
2021/12/02 11:42:18;;;;;;;1.10;1.00;;;;;;;;;;5124935;27;20176;-46
2021/12/02 11:44:45;;;;;;;1.35;1.15;;;;;;;;;;5115765;27;20191;-46
2021/12/02 11:47:11;;;;;;;1.35;1.20;;;;;;;;;;5118632;27;20713;-46
2021/12/02 11:49:37;;;;;;;1.75;1.30;;;;;;;;;;5116284;27;20181;-46
2021/12/02 11:52:03;;;;;;;2.60;1.10;;;;;;;;;;5123917;27;20173;-46
2021/12/02 11:54:29;;;;;;;2.47;1.30;;;;;;;;;;5124739;27;20208;-46
2021/12/02 11:56:56;;;;;;;1.80;1.30;;;;;;;;;;5120669;27;20188;-46
2021/12/02 11:59:22;;;;;;;2.40;1.27;;;;;;;;;;5121897;27;20185;-46
2021/12/02 12:01:54;;;;;;;1.67;1.30;;;;;;;;;;5124180;27;20176;-46
2021/12/02 12:04:20;;;;;;;2.35;1.30;;;;;;;;;;5120106;27;20548;-45
2021/12/02 12:06:50;;;;;;;1.27;1.17;;;;;;;;;;5123319;27;20612;-46
2021/12/02 12:09:17;;;;;;;1.40;1.20;;;;;;;;;;5118522;27;20940;-46
2021/12/02 12:11:51;;;;;;;2.55;1.40;;;;;;;;;;5104233;27;20265;-46
2021/12/02 12:14:19;;;;;;;1.30;1.10;;;;;;;;;;5114032;27;20192;-46
2021/12/02 12:16:50;;;;;;;2.08;1.35;;;;;;;;;;5125463;27;20164;-46
2021/12/02 12:19:18;;;;;;;1.45;1.20;;;;;;;;;;5107969;27;20263;-46
2021/12/02 12:21:45;;;;;;;1.83;1.20;;;;;;;;;;5123726;27;20204;-46
2021/12/02 12:24:15;;;;;;;1.23;1.13;;;;;;;;;;5113348;27;20189;-46
2021/12/02 12:26:44;;;;;;;1.10;1.00;;;;;;;;;;5107962;27;20196;-46
2021/12/02 12:29:12;;;;;;;1.65;1.30;;;;;;;;;;5121662;27;20615;-46
2021/12/02 12:34:33;;;;;;;1.50;1.27;;;;;;;;;;5112205;27;20213;-46
2021/12/02 12:37:01;;;;;;;2.35;1.52;;;;;;;;;;5106753;28;20218;-46
2021/12/02 12:39:31;;;;;;;4.10;2.10;;;;;;;;;;5104838;28;20599;-46
2021/12/02 12:42:13;;;;;;;2.08;1.88;;;;;;;;;;5111057;28;20181;-47
2021/12/02 12:44:52;;;;;;;3.53;1.90;;;;;;;;;;5094372;28;20222;-46
2021/12/02 12:47:19;;;;;;;2.15;1.88;;;;;;;;;;5114885;27;20213;-46
2021/12/02 12:49:46;;;;;;;2.35;1.50;;;;;;;;;;5118188;27;20578;-46
2021/12/02 12:52:19;;;;;;;1.85;1.63;;;;;;;;;;5116754;27;20204;-46
2021/12/02 12:55:04;;;;;;;2.05;1.75;;;;;;;;;;5121702;27;20362;-46
2021/12/02 12:57:30;;;;;;;2.10;1.67;;;;;;;;;;5122359;27;20193;-46
2021/12/02 12:59:56;;;;;;;3.08;1.63;;;;;;;;;;5121646;27;20200;-46
2021/12/02 13:02:25;;;;;;;2.10;1.90;;;;;;;;;;5106774;28;20524;-46
2021/12/02 13:04:53;;;;;;;3.45;2.25;;;;;;;;;;5120037;28;20191;-46
2021/12/02 13:07:20;;;;;;;2.28;1.98;;;;;;;;;;5114042;28;20265;-46
2021/12/02 13:09:52;;;;;;;2.45;1.90;;;;;;;;;;5120330;28;20218;-46
2021/12/02 13:12:20;;;;;;;3.00;2.15;;;;;;;;;;5117665;28;20413;-46
2021/12/02 13:14:48;;;;;;;2.10;1.88;;;;;;;;;;5122035;28;20623;-46
2021/12/02 13:17:33;;;;;;;1.92;1.80;;;;;;;;;;5125737;28;20177;-46
2021/12/02 13:19:59;;;;;;;2.00;1.65;;;;;;;;;;5109352;28;20177;-46
2021/12/02 13:22:25;;;;;;;2.65;1.88;;;;;;;;;;5122182;28;20897;-46
2021/12/02 13:24:51;;;;;;;2.17;1.90;;;;;;;;;;5124659;28;20259;-46
2021/12/02 13:27:21;;;;;;;2.17;1.75;;;;;;;;;;5118866;28;20195;-46
2021/12/02 13:29:47;;;;;;;1.83;1.73;;;;;;;;;;5122453;28;20173;-46
2021/12/02 13:32:13;;;;;;;2.28;2.08;;;;;;;;;;5117379;28;20173;-46
2021/12/02 13:34:39;;;;;;;3.58;2.67;;;;;;;;;;5116753;28;20204;-46
2021/12/02 13:37:05;;;;;;;4.03;2.80;;;;;;;;;;5122345;28;20177;-46
2021/12/02 13:39:39;;;;;;;9.00;5.68;;;;;;;;;;5108299;28;20176;-46
2021/12/02 13:42:09;;;;;;;8.40;4.95;;;;;;;;;;5114930;28;20186;-46
2021/12/02 13:44:39;;;;;;;8.18;4.90;;;;;;;;;;5109761;28;20208;-45
2021/12/02 13:47:08;;;;;;;7.22;4.55;;;;;;;;;;5110436;28;20610;-46
2021/12/02 13:49:38;;;;;;;6.50;4.30;;;;;;;;;;5117486;28;20773;-46
2021/12/02 13:52:23;;;;;;;8.77;4.70;;;;;;;;;;5120517;28;20284;-46
2021/12/02 13:54:53;;;;;;;6.28;4.32;;;;;;;;;;5111701;27;20205;-46
2021/12/02 13:57:23;;;;;;;6.32;3.95;;;;;;;;;;5107328;27;20170;-46
2021/12/02 13:59:50;;;;;;;6.72;4.32;;;;;;;;;;5107111;27;20215;-46
2021/12/02 14:02:20;;;;;;;6.45;4.40;;;;;;;;;;5127230;27;20186;-46
2021/12/02 14:04:47;;;;;;;7.45;4.72;;;;;;;;;;5114143;27;20197;-47
2021/12/02 14:07:15;;;;;;;6.88;4.47;;;;;;;;;;5111209;27;20186;-46
2021/12/02 14:09:46;;;;;;;6.45;4.43;;;;;;;;;;5120179;27;20495;-46
2021/12/02 14:12:12;;;;;;;5.82;3.78;;;;;;;;;;5116839;27;20584;-46
2021/12/02 14:14:38;;;;;;;6.05;4.05;;;;;;;;;;5114183;27;20651;-46
2021/12/02 14:17:05;;;;;;;5.97;4.10;;;;;;;;;;5126817;27;20204;-46
2021/12/02 14:19:31;;;;;;;6.38;4.05;;;;;;;;;;5109788;27;20184;-46
2021/12/02 14:21:57;;;;;;;4.80;3.40;;;;;;;;;;5126126;27;20188;-46
2021/12/02 14:24:24;;;;;;;6.00;4.07;;;;;;;;;;5128671;27;20259;-46
2021/12/02 14:26:50;;;;;;;6.10;4.55;;;;;;;;;;5111758;27;20186;-47
2021/12/02 14:29:16;;;;;;;4.82;3.65;;;;;;;;;;5118117;27;20184;-46
2021/12/02 14:31:42;;;;;;;5.20;3.47;;;;;;;;;;5117092;27;20185;-47
2021/12/02 14:34:10;;;;;;;4.95;3.30;;;;;;;;;;5115324;27;20215;-46
2021/12/02 14:36:40;;;;;;;8.70;3.65;;;;;;;;;;5115405;27;20540;-46
2021/12/02 14:39:08;;;;;;;13.75;3.65;;;;;;;;;;5113107;27;20594;-47
2021/12/02 14:41:36;;;;;;;11.30;4.03;;;;;;;;;;5126346;27;20180;-46
2021/12/02 14:44:06;;;;;;;10.32;3.60;;;;;;;;;;5110606;27;20185;-46
2021/12/02 14:46:36;;;;;;;7.50;2.90;;;;;;;;;;5127065;27;20199;-46
2021/12/02 14:49:14;;;;;;;16.42;3.50;;;;;;;;;;5124010;27;20196;-46
2021/12/02 14:51:44;;;;;;;10.35;3.45;;;;;;;;;;5121379;27;20176;-46
2021/12/02 14:54:10;;;;;;;9.43;3.40;;;;;;;;;;5112958;27;20205;-46
2021/12/02 14:56:37;;;;;;;8.80;3.22;;;;;;;;;;5116233;27;20169;-46
2021/12/02 14:59:11;;;;;;;11.93;3.40;;;;;;;;;;5108883;27;20611;-47
2021/12/02 15:01:54;;;;;;;6.22;3.75;;;;;;;;;;5102963;27;20218;-46
2021/12/02 15:04:20;;;;;;;5.85;2.80;;;;;;;;;;5124807;27;20256;-46